Terminal Aerodrome Forecast
Issued by NWS Sioux Falls, SD

Home | Current Version | Previous Version | Graphics & Text | Print | Product List | Glossary On
Versions: 1 2 3 4 5 6 7 8 9 10 11 12 13 14 15 16 17 18 19 20 21 22 23 24 25
000
FTUS43 KFSD 292325
TAFSUX
TAF
KSUX 292325Z 3000/3024 04018G26KT P6SM OVC060
     FM300400 03017G25KT P6SM VCSH OVC050
     FM300600 03017G25KT P6SM RA OVC040
     FM300800 02019G27KT P6SM RA OVC025
     FM301000 02020G28KT 6SM RA OVC015
     FM301600 03023G32KT 2SM RA OVC008=

USA.gov is the U.S. government's official web portal to all federal, state and local government web resources and services.